sensor_id;sensor_type;location;lat;lon;timestamp;P1;durP1;ratioP1;P2;durP2;ratioP2
577;SDS011;275;48.492;9.214;2023-07-02T00:01:45;4.60;;;2.63;;
577;SDS011;275;48.492;9.214;2023-07-02T00:04:12;4.83;;;2.57;;
577;SDS011;275;48.492;9.214;2023-07-02T00:06:41;6.90;;;3.10;;
577;SDS011;275;48.492;9.214;2023-07-02T00:09:09;4.57;;;2.57;;
577;SDS011;275;48.492;9.214;2023-07-02T00:11:37;4.33;;;2.87;;
577;SDS011;275;48.492;9.214;2023-07-02T00:14:04;4.20;;;3.30;;
577;SDS011;275;48.492;9.214;2023-07-02T00:16:31;3.30;;;3.00;;
577;SDS011;275;48.492;9.214;2023-07-02T00:18:58;4.43;;;3.30;;
577;SDS011;275;48.492;9.214;2023-07-02T00:21:25;4.57;;;3.30;;
577;SDS011;275;48.492;9.214;2023-07-02T00:23:53;3.90;;;3.17;;
577;SDS011;275;48.492;9.214;2023-07-02T00:26:23;4.33;;;3.43;;
577;SDS011;275;48.492;9.214;2023-07-02T00:28:50;4.07;;;3.10;;
577;SDS011;275;48.492;9.214;2023-07-02T00:31:17;5.27;;;3.77;;
577;SDS011;275;48.492;9.214;2023-07-02T00:33:44;4.97;;;3.77;;
577;SDS011;275;48.492;9.214;2023-07-02T00:36:11;4.80;;;3.70;;
577;SDS011;275;48.492;9.214;2023-07-02T00:38:41;5.20;;;3.70;;
577;SDS011;275;48.492;9.214;2023-07-02T00:41:08;4.00;;;3.20;;
577;SDS011;275;48.492;9.214;2023-07-02T00:43:37;5.33;;;3.93;;
577;SDS011;275;48.492;9.214;2023-07-02T00:46:04;5.47;;;3.33;;
577;SDS011;275;48.492;9.214;2023-07-02T00:48:31;4.27;;;3.10;;
577;SDS011;275;48.492;9.214;2023-07-02T00:50:59;5.20;;;2.83;;
577;SDS011;275;48.492;9.214;2023-07-02T00:53:26;5.00;;;3.40;;
577;SDS011;275;48.492;9.214;2023-07-02T00:55:52;3.77;;;3.10;;
577;SDS011;275;48.492;9.214;2023-07-02T00:58:19;4.17;;;3.23;;
577;SDS011;275;48.492;9.214;2023-07-02T01:00:48;3.73;;;3.10;;
577;SDS011;275;48.492;9.214;2023-07-02T01:03:15;3.53;;;3.10;;
577;SDS011;275;48.492;9.214;2023-07-02T01:05:42;4.50;;;3.63;;
577;SDS011;275;48.492;9.214;2023-07-02T01:08:08;4.20;;;3.80;;
577;SDS011;275;48.492;9.214;2023-07-02T01:10:37;3.60;;;3.27;;
577;SDS011;275;48.492;9.214;2023-07-02T01:13:05;4.40;;;3.60;;
577;SDS011;275;48.492;9.214;2023-07-02T01:15:34;5.30;;;3.33;;
577;SDS011;275;48.492;9.214;2023-07-02T01:18:04;4.60;;;3.67;;
577;SDS011;275;48.492;9.214;2023-07-02T01:20:33;4.50;;;3.67;;
577;SDS011;275;48.492;9.214;2023-07-02T01:23:02;4.43;;;4.03;;
577;SDS011;275;48.492;9.214;2023-07-02T01:25:30;4.50;;;3.83;;
577;SDS011;275;48.492;9.214;2023-07-02T01:27:56;4.30;;;3.90;;
577;SDS011;275;48.492;9.214;2023-07-02T01:30:24;5.10;;;4.30;;
577;SDS011;275;48.492;9.214;2023-07-02T01:32:51;7.17;;;5.17;;
577;SDS011;275;48.492;9.214;2023-07-02T01:35:18;4.97;;;3.90;;
577;SDS011;275;48.492;9.214;2023-07-02T01:37:46;4.93;;;3.80;;
577;SDS011;275;48.492;9.214;2023-07-02T01:40:13;4.80;;;3.87;;
577;SDS011;275;48.492;9.214;2023-07-02T01:42:40;4.63;;;4.23;;
577;SDS011;275;48.492;9.214;2023-07-02T01:45:07;4.97;;;4.40;;
577;SDS011;275;48.492;9.214;2023-07-02T01:47:34;5.03;;;4.53;;
577;SDS011;275;48.492;9.214;2023-07-02T01:50:02;6.00;;;5.43;;
577;SDS011;275;48.492;9.214;2023-07-02T01:52:30;5.13;;;4.63;;
577;SDS011;275;48.492;9.214;2023-07-02T01:55:00;5.03;;;4.23;;
577;SDS011;275;48.492;9.214;2023-07-02T01:57:27;5.50;;;4.87;;
577;SDS011;275;48.492;9.214;2023-07-02T01:59:55;4.50;;;4.10;;
577;SDS011;275;48.492;9.214;2023-07-02T02:02:22;5.57;;;4.77;;
577;SDS011;275;48.492;9.214;2023-07-02T02:04:49;5.93;;;4.80;;
577;SDS011;275;48.492;9.214;2023-07-02T02:07:16;6.33;;;5.50;;
577;SDS011;275;48.492;9.214;2023-07-02T02:09:42;5.60;;;5.10;;
577;SDS011;275;48.492;9.214;2023-07-02T02:12:10;5.63;;;4.93;;
577;SDS011;275;48.492;9.214;2023-07-02T02:14:39;5.50;;;4.70;;
577;SDS011;275;48.492;9.214;2023-07-02T02:17:06;5.07;;;4.57;;
577;SDS011;275;48.492;9.214;2023-07-02T02:19:33;4.77;;;4.30;;
577;SDS011;275;48.492;9.214;2023-07-02T02:21:59;4.97;;;4.17;;
577;SDS011;275;48.492;9.214;2023-07-02T02:24:26;6.33;;;5.30;;
577;SDS011;275;48.492;9.214;2023-07-02T02:26:53;10.93;;;4.80;;
577;SDS011;275;48.492;9.214;2023-07-02T02:29:21;5.57;;;5.07;;
577;SDS011;275;48.492;9.214;2023-07-02T02:31:48;4.90;;;4.50;;
577;SDS011;275;48.492;9.214;2023-07-02T02:34:15;7.10;;;5.27;;
577;SDS011;275;48.492;9.214;2023-07-02T02:36:42;5.40;;;4.90;;
577;SDS011;275;48.492;9.214;2023-07-02T02:39:09;5.30;;;4.80;;
577;SDS011;275;48.492;9.214;2023-07-02T02:41:36;5.33;;;4.83;;
577;SDS011;275;48.492;9.214;2023-07-02T02:44:02;5.70;;;5.20;;
577;SDS011;275;48.492;9.214;2023-07-02T02:46:31;5.33;;;4.30;;
577;SDS011;275;48.492;9.214;2023-07-02T02:48:57;6.67;;;5.60;;
577;SDS011;275;48.492;9.214;2023-07-02T02:51:24;5.20;;;4.70;;
577;SDS011;275;48.492;9.214;2023-07-02T02:53:51;4.77;;;4.10;;
577;SDS011;275;48.492;9.214;2023-07-02T02:56:18;6.03;;;5.20;;
577;SDS011;275;48.492;9.214;2023-07-02T02:58:45;4.90;;;4.50;;
577;SDS011;275;48.492;9.214;2023-07-02T03:01:12;5.10;;;4.37;;
577;SDS011;275;48.492;9.214;2023-07-02T03:03:41;5.43;;;4.47;;
577;SDS011;275;48.492;9.214;2023-07-02T03:06:10;4.90;;;4.40;;
577;SDS011;275;48.492;9.214;2023-07-02T03:08:37;5.10;;;4.60;;
577;SDS011;275;48.492;9.214;2023-07-02T03:11:05;5.40;;;4.90;;
577;SDS011;275;48.492;9.214;2023-07-02T03:13:32;6.20;;;5.60;;
577;SDS011;275;48.492;9.214;2023-07-02T03:15:59;5.60;;;4.60;;
577;SDS011;275;48.492;9.214;2023-07-02T03:18:25;5.93;;;4.87;;
577;SDS011;275;48.492;9.214;2023-07-02T03:20:54;5.93;;;5.37;;
577;SDS011;275;48.492;9.214;2023-07-02T03:23:20;5.90;;;5.30;;
577;SDS011;275;48.492;9.214;2023-07-02T03:25:47;6.20;;;5.47;;
577;SDS011;275;48.492;9.214;2023-07-02T03:28:14;6.80;;;5.30;;
577;SDS011;275;48.492;9.214;2023-07-02T03:30:41;5.90;;;5.30;;
577;SDS011;275;48.492;9.214;2023-07-02T03:33:08;6.23;;;5.73;;
577;SDS011;275;48.492;9.214;2023-07-02T03:35:35;6.63;;;6.03;;
577;SDS011;275;48.492;9.214;2023-07-02T03:38:03;6.30;;;5.63;;
577;SDS011;275;48.492;9.214;2023-07-02T03:40:30;5.60;;;5.10;;
577;SDS011;275;48.492;9.214;2023-07-02T03:42:57;6.33;;;5.73;;
577;SDS011;275;48.492;9.214;2023-07-02T03:45:24;7.30;;;6.60;;
577;SDS011;275;48.492;9.214;2023-07-02T03:47:51;6.87;;;5.37;;
577;SDS011;275;48.492;9.214;2023-07-02T03:50:18;6.87;;;6.23;;
577;SDS011;275;48.492;9.214;2023-07-02T03:52:45;7.90;;;7.10;;
577;SDS011;275;48.492;9.214;2023-07-02T03:55:13;9.83;;;7.67;;
577;SDS011;275;48.492;9.214;2023-07-02T03:57:40;8.43;;;7.63;;
577;SDS011;275;48.492;9.214;2023-07-02T04:00:07;7.80;;;7.20;;
577;SDS011;275;48.492;9.214;2023-07-02T04:02:36;8.80;;;8.00;;
577;SDS011;275;48.492;9.214;2023-07-02T04:05:03;7.03;;;6.43;;
577;SDS011;275;48.492;9.214;2023-07-02T04:07:30;8.40;;;7.57;;
577;SDS011;275;48.492;9.214;2023-07-02T04:09:57;9.47;;;8.00;;
577;SDS011;275;48.492;9.214;2023-07-02T04:12:26;7.50;;;6.80;;
577;SDS011;275;48.492;9.214;2023-07-02T04:14:53;8.00;;;7.40;;
577;SDS011;275;48.492;9.214;2023-07-02T04:17:20;8.40;;;7.70;;
577;SDS011;275;48.492;9.214;2023-07-02T04:19:47;8.93;;;8.00;;
577;SDS011;275;48.492;9.214;2023-07-02T04:22:15;8.97;;;8.07;;
577;SDS011;275;48.492;9.214;2023-07-02T04:24:43;9.10;;;8.40;;
577;SDS011;275;48.492;9.214;2023-07-02T04:27:10;8.40;;;7.70;;
577;SDS011;275;48.492;9.214;2023-07-02T04:29:39;9.83;;;9.00;;
577;SDS011;275;48.492;9.214;2023-07-02T04:32:06;7.60;;;7.00;;
577;SDS011;275;48.492;9.214;2023-07-02T04:34:34;6.20;;;5.60;;
577;SDS011;275;48.492;9.214;2023-07-02T04:37:01;7.93;;;6.83;;
577;SDS011;275;48.492;9.214;2023-07-02T04:39:28;7.10;;;6.37;;
577;SDS011;275;48.492;9.214;2023-07-02T04:41:55;7.87;;;5.77;;
577;SDS011;275;48.492;9.214;2023-07-02T04:44:22;6.43;;;5.83;;
577;SDS011;275;48.492;9.214;2023-07-02T04:46:56;5.80;;;5.30;;
577;SDS011;275;48.492;9.214;2023-07-02T04:49:24;5.57;;;5.13;;
577;SDS011;275;48.492;9.214;2023-07-02T04:51:51;6.17;;;5.57;;
577;SDS011;275;48.492;9.214;2023-07-02T04:54:18;7.53;;;4.70;;
577;SDS011;275;48.492;9.214;2023-07-02T04:56:46;6.30;;;5.60;;
577;SDS011;275;48.492;9.214;2023-07-02T04:59:14;5.03;;;4.20;;
577;SDS011;275;48.492;9.214;2023-07-02T05:01:40;4.87;;;4.37;;
577;SDS011;275;48.492;9.214;2023-07-02T05:04:10;4.33;;;3.93;;
577;SDS011;275;48.492;9.214;2023-07-02T05:06:37;4.97;;;4.57;;
577;SDS011;275;48.492;9.214;2023-07-02T05:09:04;4.70;;;4.20;;
577;SDS011;275;48.492;9.214;2023-07-02T05:11:31;5.47;;;4.97;;
577;SDS011;275;48.492;9.214;2023-07-02T05:13:57;4.73;;;4.33;;
577;SDS011;275;48.492;9.214;2023-07-02T05:16:24;4.47;;;4.07;;
577;SDS011;275;48.492;9.214;2023-07-02T05:18:51;4.67;;;3.77;;
577;SDS011;275;48.492;9.214;2023-07-02T05:21:20;3.97;;;3.50;;
577;SDS011;275;48.492;9.214;2023-07-02T05:23:47;3.40;;;3.00;;
577;SDS011;275;48.492;9.214;2023-07-02T05:26:14;5.07;;;3.37;;
577;SDS011;275;48.492;9.214;2023-07-02T05:28:41;3.70;;;3.30;;
577;SDS011;275;48.492;9.214;2023-07-02T05:31:09;3.97;;;3.57;;
577;SDS011;275;48.492;9.214;2023-07-02T05:33:36;5.67;;;4.07;;
577;SDS011;275;48.492;9.214;2023-07-02T05:36:04;4.10;;;3.63;;
577;SDS011;275;48.492;9.214;2023-07-02T05:38:32;5.07;;;3.20;;
577;SDS011;275;48.492;9.214;2023-07-02T05:40:59;3.60;;;3.00;;
577;SDS011;275;48.492;9.214;2023-07-02T05:43:26;4.43;;;3.47;;
577;SDS011;275;48.492;9.214;2023-07-02T05:45:53;4.03;;;3.63;;
577;SDS011;275;48.492;9.214;2023-07-02T05:48:20;4.87;;;3.47;;
577;SDS011;275;48.492;9.214;2023-07-02T05:50:46;5.23;;;3.80;;
577;SDS011;275;48.492;9.214;2023-07-02T05:53:13;4.40;;;4.00;;
577;SDS011;275;48.492;9.214;2023-07-02T05:55:41;3.90;;;3.23;;
577;SDS011;275;48.492;9.214;2023-07-02T05:58:08;2.80;;;2.30;;
577;SDS011;275;48.492;9.214;2023-07-02T06:00:35;3.17;;;2.50;;
577;SDS011;275;48.492;9.214;2023-07-02T06:03:02;4.77;;;2.97;;
577;SDS011;275;48.492;9.214;2023-07-02T06:05:29;3.63;;;2.50;;
577;SDS011;275;48.492;9.214;2023-07-02T06:07:55;3.10;;;2.67;;
577;SDS011;275;48.492;9.214;2023-07-02T06:10:22;3.50;;;2.90;;
577;SDS011;275;48.492;9.214;2023-07-02T06:12:50;3.60;;;2.60;;
577;SDS011;275;48.492;9.214;2023-07-02T06:15:17;4.07;;;2.63;;
577;SDS011;275;48.492;9.214;2023-07-02T06:17:44;4.57;;;2.50;;
577;SDS011;275;48.492;9.214;2023-07-02T06:20:11;4.97;;;3.00;;
577;SDS011;275;48.492;9.214;2023-07-02T06:22:38;3.90;;;2.30;;
577;SDS011;275;48.492;9.214;2023-07-02T06:25:07;3.97;;;2.40;;
577;SDS011;275;48.492;9.214;2023-07-02T06:27:34;3.63;;;2.37;;
577;SDS011;275;48.492;9.214;2023-07-02T06:30:02;4.60;;;2.40;;
577;SDS011;275;48.492;9.214;2023-07-02T06:32:30;3.70;;;2.00;;
577;SDS011;275;48.492;9.214;2023-07-02T06:34:57;4.77;;;2.67;;
577;SDS011;275;48.492;9.214;2023-07-02T06:37:24;4.67;;;3.10;;
577;SDS011;275;48.492;9.214;2023-07-02T06:39:50;4.10;;;2.90;;
577;SDS011;275;48.492;9.214;2023-07-02T06:42:17;4.73;;;3.47;;
577;SDS011;275;48.492;9.214;2023-07-02T06:44:44;5.93;;;2.77;;
577;SDS011;275;48.492;9.214;2023-07-02T06:47:12;11.10;;;4.50;;
577;SDS011;275;48.492;9.214;2023-07-02T06:49:39;7.00;;;3.00;;
577;SDS011;275;48.492;9.214;2023-07-02T06:52:06;6.23;;;4.10;;
577;SDS011;275;48.492;9.214;2023-07-02T06:54:33;6.40;;;4.27;;
577;SDS011;275;48.492;9.214;2023-07-02T06:57:00;5.50;;;4.40;;
577;SDS011;275;48.492;9.214;2023-07-02T06:59:26;7.23;;;5.00;;
577;SDS011;275;48.492;9.214;2023-07-02T07:01:53;6.93;;;4.40;;
577;SDS011;275;48.492;9.214;2023-07-02T07:04:21;5.77;;;3.80;;
577;SDS011;275;48.492;9.214;2023-07-02T07:06:48;6.90;;;4.20;;
577;SDS011;275;48.492;9.214;2023-07-02T07:09:15;7.27;;;4.57;;
577;SDS011;275;48.492;9.214;2023-07-02T07:11:43;7.37;;;4.20;;
577;SDS011;275;48.492;9.214;2023-07-02T07:14:09;7.43;;;5.73;;
577;SDS011;275;48.492;9.214;2023-07-02T07:16:36;6.50;;;5.23;;
577;SDS011;275;48.492;9.214;2023-07-02T07:19:03;6.80;;;5.00;;
577;SDS011;275;48.492;9.214;2023-07-02T07:21:32;7.70;;;5.80;;
577;SDS011;275;48.492;9.214;2023-07-02T07:23:59;8.80;;;5.07;;
577;SDS011;275;48.492;9.214;2023-07-02T07:26:25;6.60;;;4.93;;
577;SDS011;275;48.492;9.214;2023-07-02T07:28:52;6.67;;;4.77;;
577;SDS011;275;48.492;9.214;2023-07-02T07:31:21;7.97;;;4.80;;
577;SDS011;275;48.492;9.214;2023-07-02T07:33:48;7.43;;;5.20;;
577;SDS011;275;48.492;9.214;2023-07-02T07:36:15;8.70;;;6.47;;
577;SDS011;275;48.492;9.214;2023-07-02T07:38:44;8.57;;;7.00;;
577;SDS011;275;48.492;9.214;2023-07-02T07:41:10;11.90;;;6.30;;
577;SDS011;275;48.492;9.214;2023-07-02T07:43:38;8.63;;;6.40;;
577;SDS011;275;48.492;9.214;2023-07-02T07:46:04;11.10;;;7.20;;
577;SDS011;275;48.492;9.214;2023-07-02T07:48:31;8.70;;;6.43;;
577;SDS011;275;48.492;9.214;2023-07-02T07:50:58;9.23;;;7.30;;
577;SDS011;275;48.492;9.214;2023-07-02T07:53:25;9.30;;;6.10;;
577;SDS011;275;48.492;9.214;2023-07-02T07:55:53;8.83;;;7.37;;
577;SDS011;275;48.492;9.214;2023-07-02T07:58:20;13.90;;;7.27;;
577;SDS011;275;48.492;9.214;2023-07-02T08:00:47;11.90;;;8.30;;
577;SDS011;275;48.492;9.214;2023-07-02T08:03:13;12.07;;;8.53;;
577;SDS011;275;48.492;9.214;2023-07-02T08:05:40;9.87;;;7.40;;
577;SDS011;275;48.492;9.214;2023-07-02T08:08:07;9.83;;;7.60;;
577;SDS011;275;48.492;9.214;2023-07-02T08:10:34;9.60;;;7.13;;
577;SDS011;275;48.492;9.214;2023-07-02T08:13:02;11.40;;;7.40;;
577;SDS011;275;48.492;9.214;2023-07-02T08:15:29;7.87;;;6.23;;
577;SDS011;275;48.492;9.214;2023-07-02T08:17:56;8.97;;;7.13;;
577;SDS011;275;48.492;9.214;2023-07-02T08:20:23;11.00;;;8.50;;
577;SDS011;275;48.492;9.214;2023-07-02T08:22:50;9.80;;;7.23;;
577;SDS011;275;48.492;9.214;2023-07-02T08:25:17;9.90;;;8.10;;
577;SDS011;275;48.492;9.214;2023-07-02T08:27:46;12.90;;;8.30;;
577;SDS011;275;48.492;9.214;2023-07-02T08:30:15;9.07;;;8.17;;
577;SDS011;275;48.492;9.214;2023-07-02T08:32:42;10.97;;;8.53;;
577;SDS011;275;48.492;9.214;2023-07-02T08:35:09;11.60;;;9.83;;
577;SDS011;275;48.492;9.214;2023-07-02T08:37:36;13.23;;;10.23;;
577;SDS011;275;48.492;9.214;2023-07-02T08:40:03;11.30;;;9.83;;
577;SDS011;275;48.492;9.214;2023-07-02T08:42:31;13.43;;;10.43;;
577;SDS011;275;48.492;9.214;2023-07-02T08:44:59;10.57;;;8.97;;
577;SDS011;275;48.492;9.214;2023-07-02T08:47:27;14.70;;;10.20;;
577;SDS011;275;48.492;9.214;2023-07-02T08:49:54;11.50;;;9.97;;
577;SDS011;275;48.492;9.214;2023-07-02T08:52:21;11.70;;;10.20;;
577;SDS011;275;48.492;9.214;2023-07-02T08:54:48;14.67;;;10.27;;
577;SDS011;275;48.492;9.214;2023-07-02T08:57:15;13.30;;;11.70;;
577;SDS011;275;48.492;9.214;2023-07-02T08:59:41;12.67;;;11.23;;
577;SDS011;275;48.492;9.214;2023-07-02T09:02:08;13.27;;;10.73;;
577;SDS011;275;48.492;9.214;2023-07-02T09:04:36;12.07;;;10.73;;
577;SDS011;275;48.492;9.214;2023-07-02T09:07:04;13.07;;;10.33;;
577;SDS011;275;48.492;9.214;2023-07-02T09:09:31;13.03;;;9.93;;
577;SDS011;275;48.492;9.214;2023-07-02T09:11:59;14.00;;;11.77;;
577;SDS011;275;48.492;9.214;2023-07-02T09:14:26;16.70;;;12.40;;
577;SDS011;275;48.492;9.214;2023-07-02T09:17:01;18.00;;;11.67;;
577;SDS011;275;48.492;9.214;2023-07-02T09:19:32;14.50;;;11.03;;
577;SDS011;275;48.492;9.214;2023-07-02T09:22:01;16.07;;;13.13;;
577;SDS011;275;48.492;9.214;2023-07-02T09:24:29;14.70;;;11.20;;
577;SDS011;275;48.492;9.214;2023-07-02T09:26:57;12.80;;;11.43;;
577;SDS011;275;48.492;9.214;2023-07-02T09:29:26;13.50;;;11.07;;
577;SDS011;275;48.492;9.214;2023-07-02T09:31:54;13.40;;;11.27;;
577;SDS011;275;48.492;9.214;2023-07-02T09:34:26;15.90;;;10.80;;
577;SDS011;275;48.492;9.214;2023-07-02T09:36:55;13.97;;;12.50;;
577;SDS011;275;48.492;9.214;2023-07-02T09:39:26;15.20;;;11.63;;
577;SDS011;275;48.492;9.214;2023-07-02T09:41:54;13.50;;;11.40;;
577;SDS011;275;48.492;9.214;2023-07-02T09:44:23;13.40;;;12.07;;
577;SDS011;275;48.492;9.214;2023-07-02T09:46:56;13.33;;;10.63;;
577;SDS011;275;48.492;9.214;2023-07-02T09:49:27;13.30;;;12.00;;
577;SDS011;275;48.492;9.214;2023-07-02T09:51:58;13.40;;;11.97;;
577;SDS011;275;48.492;9.214;2023-07-02T09:54:27;13.63;;;12.23;;
577;SDS011;275;48.492;9.214;2023-07-02T09:56:55;12.93;;;11.60;;
577;SDS011;275;48.492;9.214;2023-07-02T09:59:22;14.67;;;12.73;;
577;SDS011;275;48.492;9.214;2023-07-02T10:01:49;14.67;;;13.17;;
577;SDS011;275;48.492;9.214;2023-07-02T10:04:17;17.23;;;12.80;;
577;SDS011;275;48.492;9.214;2023-07-02T10:06:45;13.53;;;11.50;;
577;SDS011;275;48.492;9.214;2023-07-02T10:09:13;16.67;;;13.03;;
577;SDS011;275;48.492;9.214;2023-07-02T10:11:42;14.60;;;13.10;;
577;SDS011;275;48.492;9.214;2023-07-02T10:14:09;14.50;;;13.00;;
577;SDS011;275;48.492;9.214;2023-07-02T10:16:48;16.20;;;13.40;;
577;SDS011;275;48.492;9.214;2023-07-02T10:19:15;16.57;;;14.87;;
577;SDS011;275;48.492;9.214;2023-07-02T10:21:42;17.80;;;15.13;;
577;SDS011;275;48.492;9.214;2023-07-02T10:24:12;17.50;;;15.70;;
577;SDS011;275;48.492;9.214;2023-07-02T10:26:52;17.03;;;15.20;;
577;SDS011;275;48.492;9.214;2023-07-02T10:29:20;22.23;;;16.30;;
577;SDS011;275;48.492;9.214;2023-07-02T10:31:48;17.13;;;15.30;;
577;SDS011;275;48.492;9.214;2023-07-02T10:34:15;20.83;;;18.63;;
577;SDS011;275;48.492;9.214;2023-07-02T10:36:42;19.97;;;17.37;;
577;SDS011;275;48.492;9.214;2023-07-02T10:39:09;19.10;;;17.10;;
577;SDS011;275;48.492;9.214;2023-07-02T10:41:36;21.97;;;18.23;;
577;SDS011;275;48.492;9.214;2023-07-02T10:44:08;18.23;;;16.47;;
577;SDS011;275;48.492;9.214;2023-07-02T10:46:42;21.50;;;18.00;;
577;SDS011;275;48.492;9.214;2023-07-02T10:49:09;19.90;;;17.80;;
577;SDS011;275;48.492;9.214;2023-07-02T10:51:36;19.67;;;17.23;;
577;SDS011;275;48.492;9.214;2023-07-02T10:54:04;17.87;;;15.93;;
577;SDS011;275;48.492;9.214;2023-07-02T10:56:32;18.90;;;16.93;;
577;SDS011;275;48.492;9.214;2023-07-02T10:58:58;19.30;;;17.00;;
577;SDS011;275;48.492;9.214;2023-07-02T11:01:27;18.43;;;16.27;;
577;SDS011;275;48.492;9.214;2023-07-02T11:03:56;19.40;;;16.47;;
577;SDS011;275;48.492;9.214;2023-07-02T11:06:24;19.33;;;17.40;;
577;SDS011;275;48.492;9.214;2023-07-02T11:08:51;18.97;;;17.07;;
577;SDS011;275;48.492;9.214;2023-07-02T11:11:19;18.60;;;16.47;;
577;SDS011;275;48.492;9.214;2023-07-02T11:13:47;20.20;;;17.20;;
577;SDS011;275;48.492;9.214;2023-07-02T11:16:18;24.30;;;20.13;;
577;SDS011;275;48.492;9.214;2023-07-02T11:18:49;22.73;;;20.43;;
577;SDS011;275;48.492;9.214;2023-07-02T11:21:16;22.97;;;20.60;;
577;SDS011;275;48.492;9.214;2023-07-02T11:23:43;23.27;;;20.80;;
577;SDS011;275;48.492;9.214;2023-07-02T11:26:09;22.60;;;20.07;;
577;SDS011;275;48.492;9.214;2023-07-02T11:28:46;23.30;;;20.23;;
577;SDS011;275;48.492;9.214;2023-07-02T11:31:14;21.77;;;19.53;;
577;SDS011;275;48.492;9.214;2023-07-02T11:33:53;23.57;;;21.03;;
577;SDS011;275;48.492;9.214;2023-07-02T11:36:20;22.23;;;19.90;;
577;SDS011;275;48.492;9.214;2023-07-02T11:38:49;22.80;;;19.17;;
577;SDS011;275;48.492;9.214;2023-07-02T11:41:17;22.53;;;20.13;;
577;SDS011;275;48.492;9.214;2023-07-02T11:43:45;23.70;;;21.27;;
577;SDS011;275;48.492;9.214;2023-07-02T11:46:12;23.73;;;21.23;;
577;SDS011;275;48.492;9.214;2023-07-02T11:48:39;23.23;;;20.73;;
577;SDS011;275;48.492;9.214;2023-07-02T11:51:07;24.33;;;18.60;;
577;SDS011;275;48.492;9.214;2023-07-02T11:53:34;19.80;;;17.70;;
577;SDS011;275;48.492;9.214;2023-07-02T11:56:01;18.80;;;17.00;;
577;SDS011;275;48.492;9.214;2023-07-02T11:58:28;21.57;;;18.90;;
577;SDS011;275;48.492;9.214;2023-07-02T12:00:55;20.70;;;17.50;;
577;SDS011;275;48.492;9.214;2023-07-02T12:03:22;20.87;;;18.70;;
577;SDS011;275;48.492;9.214;2023-07-02T12:05:49;19.87;;;17.77;;
577;SDS011;275;48.492;9.214;2023-07-02T12:08:17;19.97;;;17.80;;
577;SDS011;275;48.492;9.214;2023-07-02T12:10:44;17.17;;;15.40;;
577;SDS011;275;48.492;9.214;2023-07-02T12:13:11;19.37;;;17.20;;
577;SDS011;275;48.492;9.214;2023-07-02T12:15:37;19.20;;;17.30;;
577;SDS011;275;48.492;9.214;2023-07-02T12:18:04;18.80;;;17.00;;
577;SDS011;275;48.492;9.214;2023-07-02T12:20:31;19.40;;;17.40;;
577;SDS011;275;48.492;9.214;2023-07-02T12:22:58;19.67;;;17.63;;
577;SDS011;275;48.492;9.214;2023-07-02T12:25:26;18.53;;;16.70;;
577;SDS011;275;48.492;9.214;2023-07-02T12:27:53;18.27;;;16.47;;
577;SDS011;275;48.492;9.214;2023-07-02T12:30:20;19.10;;;17.10;;
577;SDS011;275;48.492;9.214;2023-07-02T12:32:47;18.17;;;16.27;;
577;SDS011;275;48.492;9.214;2023-07-02T12:35:14;19.87;;;17.80;;
577;SDS011;275;48.492;9.214;2023-07-02T12:37:44;20.30;;;18.20;;
577;SDS011;275;48.492;9.214;2023-07-02T12:40:11;20.03;;;17.90;;
577;SDS011;275;48.492;9.214;2023-07-02T12:42:40;19.60;;;17.10;;
577;SDS011;275;48.492;9.214;2023-07-02T12:45:07;19.50;;;17.20;;
577;SDS011;275;48.492;9.214;2023-07-02T12:47:35;17.07;;;15.23;;
577;SDS011;275;48.492;9.214;2023-07-02T12:50:02;19.40;;;17.10;;
577;SDS011;275;48.492;9.214;2023-07-02T12:52:30;18.73;;;16.73;;
577;SDS011;275;48.492;9.214;2023-07-02T12:54:56;19.87;;;16.50;;
577;SDS011;275;48.492;9.214;2023-07-02T12:57:23;20.70;;;18.43;;
577;SDS011;275;48.492;9.214;2023-07-02T12:59:52;21.40;;;18.63;;
577;SDS011;275;48.492;9.214;2023-07-02T13:02:20;20.50;;;18.30;;
577;SDS011;275;48.492;9.214;2023-07-02T13:04:47;19.40;;;17.27;;
577;SDS011;275;48.492;9.214;2023-07-02T13:07:14;20.27;;;18.03;;
577;SDS011;275;48.492;9.214;2023-07-02T13:09:41;18.23;;;16.47;;
577;SDS011;275;48.492;9.214;2023-07-02T13:12:08;19.13;;;17.13;;
577;SDS011;275;48.492;9.214;2023-07-02T13:14:36;20.80;;;16.27;;
577;SDS011;275;48.492;9.214;2023-07-02T13:17:04;22.03;;;18.40;;
577;SDS011;275;48.492;9.214;2023-07-02T13:19:31;20.00;;;17.90;;
577;SDS011;275;48.492;9.214;2023-07-02T13:21:58;20.27;;;18.03;;
577;SDS011;275;48.492;9.214;2023-07-02T13:24:27;20.43;;;18.20;;
577;SDS011;275;48.492;9.214;2023-07-02T13:26:58;21.87;;;18.67;;
577;SDS011;275;48.492;9.214;2023-07-02T13:29:25;19.97;;;17.90;;
577;SDS011;275;48.492;9.214;2023-07-02T13:31:51;21.40;;;19.03;;
577;SDS011;275;48.492;9.214;2023-07-02T13:34:19;23.80;;;19.90;;
577;SDS011;275;48.492;9.214;2023-07-02T13:36:46;23.00;;;20.60;;
577;SDS011;275;48.492;9.214;2023-07-02T13:39:13;23.50;;;21.00;;
577;SDS011;275;48.492;9.214;2023-07-02T13:41:40;24.40;;;21.73;;
577;SDS011;275;48.492;9.214;2023-07-02T13:44:07;23.00;;;20.60;;
577;SDS011;275;48.492;9.214;2023-07-02T13:46:34;23.53;;;20.97;;
577;SDS011;275;48.492;9.214;2023-07-02T13:49:00;23.20;;;20.83;;
577;SDS011;275;48.492;9.214;2023-07-02T13:51:29;24.50;;;22.00;;
577;SDS011;275;48.492;9.214;2023-07-02T13:53:55;22.90;;;20.60;;
577;SDS011;275;48.492;9.214;2023-07-02T13:56:22;26.73;;;22.13;;
577;SDS011;275;48.492;9.214;2023-07-02T13:59:01;22.63;;;20.33;;
577;SDS011;275;48.492;9.214;2023-07-02T14:01:29;23.70;;;20.80;;
577;SDS011;275;48.492;9.214;2023-07-02T14:03:55;21.00;;;18.80;;
577;SDS011;275;48.492;9.214;2023-07-02T14:06:22;23.00;;;20.60;;
577;SDS011;275;48.492;9.214;2023-07-02T14:08:50;21.90;;;19.60;;
577;SDS011;275;48.492;9.214;2023-07-02T14:11:17;21.70;;;19.47;;
577;SDS011;275;48.492;9.214;2023-07-02T14:13:44;23.10;;;20.90;;
577;SDS011;275;48.492;9.214;2023-07-02T14:16:12;21.63;;;19.43;;
577;SDS011;275;48.492;9.214;2023-07-02T14:18:39;23.10;;;20.07;;
577;SDS011;275;48.492;9.214;2023-07-02T14:21:06;22.43;;;19.97;;
577;SDS011;275;48.492;9.214;2023-07-02T14:23:33;23.57;;;21.03;;
577;SDS011;275;48.492;9.214;2023-07-02T14:26:00;23.57;;;20.93;;
577;SDS011;275;48.492;9.214;2023-07-02T14:28:27;21.90;;;19.67;;
577;SDS011;275;48.492;9.214;2023-07-02T14:30:58;20.70;;;18.60;;
577;SDS011;275;48.492;9.214;2023-07-02T14:33:27;19.93;;;18.03;;
577;SDS011;275;48.492;9.214;2023-07-02T14:35:55;22.23;;;17.33;;
577;SDS011;275;48.492;9.214;2023-07-02T14:38:23;21.00;;;17.77;;
577;SDS011;275;48.492;9.214;2023-07-02T14:40:50;22.37;;;20.00;;
577;SDS011;275;48.492;9.214;2023-07-02T14:43:19;20.10;;;17.97;;
577;SDS011;275;48.492;9.214;2023-07-02T14:45:46;19.93;;;17.93;;
577;SDS011;275;48.492;9.214;2023-07-02T14:48:14;21.13;;;18.93;;
577;SDS011;275;48.492;9.214;2023-07-02T14:50:44;20.80;;;18.67;;
577;SDS011;275;48.492;9.214;2023-07-02T14:53:11;20.87;;;18.87;;
577;SDS011;275;48.492;9.214;2023-07-02T14:55:39;19.60;;;17.70;;
577;SDS011;275;48.492;9.214;2023-07-02T14:58:06;20.60;;;18.40;;
577;SDS011;275;48.492;9.214;2023-07-02T15:00:33;20.23;;;18.13;;
577;SDS011;275;48.492;9.214;2023-07-02T15:03:00;19.23;;;17.23;;
577;SDS011;275;48.492;9.214;2023-07-02T15:05:27;21.37;;;18.53;;
577;SDS011;275;48.492;9.214;2023-07-02T15:07:55;22.07;;;17.97;;
577;SDS011;275;48.492;9.214;2023-07-02T15:10:22;20.27;;;18.33;;
577;SDS011;275;48.492;9.214;2023-07-02T15:12:49;19.40;;;17.50;;
577;SDS011;275;48.492;9.214;2023-07-02T15:15:16;19.00;;;17.00;;
577;SDS011;275;48.492;9.214;2023-07-02T15:17:43;18.97;;;17.07;;
577;SDS011;275;48.492;9.214;2023-07-02T15:20:10;18.57;;;16.73;;
577;SDS011;275;48.492;9.214;2023-07-02T15:22:37;18.83;;;16.93;;
577;SDS011;275;48.492;9.214;2023-07-02T15:25:06;20.30;;;18.30;;
577;SDS011;275;48.492;9.214;2023-07-02T15:27:33;18.27;;;16.37;;
577;SDS011;275;48.492;9.214;2023-07-02T15:30:00;18.20;;;16.40;;
577;SDS011;275;48.492;9.214;2023-07-02T15:32:27;16.90;;;15.20;;
577;SDS011;275;48.492;9.214;2023-07-02T15:34:54;16.87;;;14.80;;